createdAt,value
2022-10-11T00:00:20.583Z,52.72
2022-10-11T00:01:20.655Z,50.51
2022-10-11T00:02:20.593Z,50.37
2022-10-11T00:03:20.563Z,47.00
2022-10-11T00:04:20.554Z,46.75
2022-10-11T00:05:20.551Z,50.46
2022-10-11T00:06:20.569Z,49.70
2022-10-11T00:07:20.548Z,49.99
2022-10-11T00:08:20.515Z,51.11
2022-10-11T00:09:20.538Z,52.48
2022-10-11T00:10:20.498Z,53.61
2022-10-11T00:11:20.491Z,51.10
2022-10-11T00:12:20.482Z,45.91
2022-10-11T00:13:20.465Z,49.75
2022-10-11T00:14:20.472Z,53.29
2022-10-11T00:15:20.444Z,48.06
2022-10-11T00:16:20.455Z,48.85
2022-10-11T00:17:20.421Z,44.37
2022-10-11T00:18:20.428Z,62.70
2022-10-11T00:19:20.395Z,52.14
2022-10-11T00:20:20.414Z,45.06
2022-10-11T00:21:20.383Z,53.39
2022-10-11T00:22:20.402Z,53.26
2022-10-11T00:23:20.368Z,54.26
2022-10-11T00:24:20.351Z,51.73
2022-10-11T00:25:20.347Z,44.23
2022-10-11T00:26:20.336Z,49.12
2022-10-11T00:27:20.359Z,63.18
2022-10-11T00:28:20.378Z,51.49
2022-10-11T00:29:20.298Z,54.79
2022-10-11T00:30:20.293Z,47.02
2022-10-11T00:31:20.285Z,62.90
2022-10-11T00:32:20.272Z,51.61
2022-10-11T00:33:20.280Z,51.83
2022-10-11T00:34:20.244Z,52.74
2022-10-11T00:35:20.260Z,53.78
2022-10-11T00:36:20.269Z,52.52
2022-10-11T00:37:20.257Z,61.12
2022-10-11T00:38:20.216Z,53.18
2022-10-11T00:39:20.209Z,46.54
2022-10-11T00:40:20.195Z,45.76
2022-10-11T00:41:20.246Z,44.13
2022-10-11T00:42:20.166Z,41.36
2022-10-11T00:43:20.171Z,47.26
2022-10-11T00:44:20.141Z,55.21
2022-10-11T00:45:20.153Z,54.07
2022-10-11T00:46:20.148Z,43.83
2022-10-11T00:47:20.118Z,40.07
2022-10-11T00:48:20.118Z,40.41
2022-10-11T00:49:20.110Z,44.26
2022-10-11T00:50:20.088Z,39.99
2022-10-11T00:51:20.113Z,40.80
2022-10-11T00:52:20.069Z,46.46
2022-10-11T00:53:20.078Z,48.19
2022-10-11T00:54:20.041Z,59.44
2022-10-11T00:55:20.035Z,58.74
2022-10-11T00:56:20.029Z,55.29
2022-10-11T00:57:20.036Z,49.55
2022-10-11T00:58:20.044Z,50.35
2022-10-11T00:59:20.023Z,59.21
2022-10-11T01:00:19.990Z,51.01
2022-10-11T01:01:20.062Z,49.89
2022-10-11T01:02:19.977Z,55.91
2022-10-11T01:03:19.945Z,54.47
2022-10-11T01:04:20.015Z,51.54
2022-10-11T01:05:32.567Z,45.63
2022-10-11T01:06:21.935Z,53.00
2022-10-11T01:07:19.917Z,50.87
2022-10-11T01:08:19.922Z,50.83
2022-10-11T01:09:19.912Z,50.01
2022-10-11T01:10:20.906Z,47.04
2022-10-11T01:11:19.895Z,43.96
2022-10-11T01:12:19.860Z,46.71
2022-10-11T01:13:19.858Z,51.28
2022-10-11T01:14:19.844Z,58.07
2022-10-11T01:15:19.906Z,51.22
2022-10-11T01:16:19.859Z,57.87
2022-10-11T01:17:19.821Z,51.11
2022-10-11T01:18:19.810Z,50.29
2022-10-11T01:19:19.791Z,61.50
2022-10-11T01:20:19.813Z,57.05
2022-10-11T01:21:19.775Z,57.39
2022-10-11T01:22:19.781Z,56.36
2022-10-11T01:23:19.772Z,51.45
2022-10-11T01:24:19.764Z,47.99
2022-10-11T01:25:19.943Z,54.22
2022-10-11T01:26:19.737Z,51.46
2022-10-11T01:27:19.730Z,53.34
2022-10-11T01:28:19.775Z,51.04
2022-10-11T01:29:19.685Z,47.57
2022-10-11T01:30:20.727Z,60.26
2022-10-11T01:31:19.710Z,52.36
2022-10-11T01:32:19.671Z,46.64
2022-10-11T01:33:19.664Z,51.85
2022-10-11T01:34:19.656Z,55.33
2022-10-11T01:35:19.667Z,54.69
2022-10-11T01:36:19.632Z,61.11
2022-10-11T01:37:19.626Z,54.35
2022-10-11T01:38:19.688Z,52.10
2022-10-11T01:39:19.605Z,53.01
2022-10-11T01:40:19.607Z,61.53
2022-10-11T01:41:19.585Z,45.90
2022-10-11T01:42:19.571Z,42.82
2022-10-11T01:43:19.579Z,46.11
2022-10-11T01:44:19.558Z,52.14
2022-10-11T01:45:19.544Z,46.67
2022-10-11T01:46:19.561Z,43.81
2022-10-11T01:47:19.524Z,54.40
2022-10-11T01:48:19.523Z,55.89
2022-10-11T01:49:19.513Z,51.19
2022-10-11T01:50:19.499Z,45.52
2022-10-11T01:51:19.517Z,50.18
2022-10-11T01:52:19.479Z,53.97
2022-10-11T01:53:19.486Z,59.46
2022-10-11T01:54:19.473Z,59.08
2022-10-11T01:55:19.440Z,54.74
2022-10-11T01:56:19.427Z,53.66
2022-10-11T01:57:19.426Z,51.22
2022-10-11T01:58:19.438Z,52.49
2022-10-11T01:59:19.405Z,53.53
2022-10-11T02:00:19.390Z,51.87
2022-10-11T02:01:19.422Z,53.31
2022-10-11T02:02:19.400Z,52.38
2022-10-11T02:03:19.359Z,48.81
2022-10-11T02:04:19.369Z,54.14
2022-10-11T02:05:19.341Z,50.30
2022-10-11T02:06:19.331Z,54.25
2022-10-11T02:07:19.326Z,54.84
2022-10-11T02:08:19.318Z,57.92
2022-10-11T02:09:19.326Z,49.28
2022-10-11T02:10:19.312Z,52.09
2022-10-11T02:11:19.290Z,46.81
2022-10-11T02:12:19.309Z,46.18
2022-10-11T02:13:19.270Z,56.89
2022-10-11T02:14:19.292Z,57.56
2022-10-11T02:15:19.264Z,51.08
2022-10-11T02:16:19.257Z,54.97
2022-10-11T02:17:19.245Z,57.76
2022-10-11T02:18:19.241Z,51.02
2022-10-11T02:19:19.218Z,50.55
2022-10-11T02:20:19.198Z,54.93
2022-10-11T02:21:19.205Z,51.74
2022-10-11T02:22:19.178Z,54.61
2022-10-11T02:23:19.176Z,53.13
2022-10-11T02:24:19.159Z,51.34
2022-10-11T02:25:19.142Z,59.35
2022-10-11T02:26:19.147Z,58.08
2022-10-11T02:27:19.128Z,51.43
2022-10-11T02:28:19.154Z,66.62
2022-10-11T02:29:19.108Z,56.51
2022-10-11T02:30:19.103Z,50.78
2022-10-11T02:31:19.115Z,51.85
2022-10-11T02:32:19.075Z,57.48
2022-10-11T02:33:19.076Z,61.46
2022-10-11T02:36:37.557Z,61.22
2022-10-11T02:37:38.645Z,54.63
2022-10-11T02:38:38.631Z,56.51
2022-10-11T02:39:38.632Z,54.00
2022-10-11T02:40:38.616Z,51.60
2022-10-11T02:41:38.641Z,64.80
2022-10-11T02:42:38.590Z,57.86
2022-10-11T02:43:38.582Z,54.23
2022-10-11T02:44:38.581Z,54.51
2022-10-11T02:45:38.573Z,56.99
2022-10-11T02:46:38.557Z,56.00
2022-10-11T02:47:38.557Z,63.03
2022-10-11T02:48:38.543Z,59.40
2022-10-11T02:49:38.520Z,55.21
2022-10-11T02:50:38.517Z,62.24
2022-10-11T02:51:38.531Z,58.08
2022-10-11T02:52:38.495Z,58.11
2022-10-11T02:53:38.493Z,54.87
2022-10-11T02:54:38.496Z,55.82
2022-10-11T02:55:38.461Z,54.52
2022-10-11T02:56:38.456Z,56.56
2022-10-11T02:57:38.453Z,54.43
2022-10-11T02:58:38.439Z,50.05
2022-10-11T02:59:38.434Z,55.50
2022-10-11T03:00:38.409Z,53.88
2022-10-11T03:01:38.460Z,56.82
2022-10-11T03:02:38.412Z,63.70
2022-10-11T03:03:38.391Z,56.76
2022-10-11T03:04:38.393Z,56.33
2022-10-11T03:05:38.374Z,59.49
2022-10-11T03:06:38.378Z,58.86
2022-10-11T03:07:38.351Z,56.61
2022-10-11T03:08:38.333Z,58.04
2022-10-11T03:09:38.342Z,54.27
2022-10-11T03:10:39.319Z,57.77
2022-10-11T03:11:38.309Z,52.83
2022-10-11T03:12:38.295Z,57.90
2022-10-11T03:13:38.292Z,57.36
2022-10-11T03:14:38.302Z,56.30
2022-10-11T03:15:39.271Z,62.36
2022-10-11T03:16:38.262Z,58.19
2022-10-11T03:17:38.251Z,56.68
2022-10-11T03:18:38.243Z,56.54
2022-10-11T03:19:38.238Z,58.92
2022-10-11T03:20:38.249Z,63.91
2022-10-11T03:21:38.223Z,56.41
2022-10-11T03:22:38.208Z,55.98
2022-10-11T03:23:38.197Z,58.75
2022-10-11T03:24:38.196Z,59.17
2022-10-11T03:25:38.196Z,57.50
2022-10-11T03:26:38.156Z,57.08
2022-10-11T03:27:38.148Z,54.84
2022-10-11T03:28:38.204Z,60.81
2022-10-11T03:29:38.141Z,62.46
2022-10-11T03:30:38.138Z,59.46
2022-10-11T03:31:38.142Z,58.60
2022-10-11T03:32:38.098Z,58.08
2022-10-11T03:33:38.098Z,60.74
2022-10-11T03:34:38.080Z,58.11
2022-10-11T03:35:38.076Z,58.36
2022-10-11T03:36:38.092Z,63.19
2022-10-11T03:37:38.061Z,64.99
2022-10-11T03:38:38.050Z,58.71
2022-10-11T03:39:38.033Z,58.05
2022-10-11T03:40:39.032Z,61.36
2022-10-11T03:41:38.018Z,59.67
2022-10-11T03:42:38.030Z,55.78
2022-10-11T03:43:37.991Z,56.45
2022-10-11T03:44:37.992Z,58.33
2022-10-11T03:45:37.975Z,59.20
2022-10-11T03:46:37.976Z,65.73
2022-10-11T03:47:37.955Z,59.57
2022-10-11T03:48:37.952Z,60.35
2022-10-11T03:49:42.708Z,64.62
2022-10-11T03:50:38.932Z,58.89
2022-10-11T03:51:37.922Z,58.56
2022-10-11T03:52:37.906Z,65.76
2022-10-11T03:53:37.905Z,60.36
2022-10-11T03:54:37.899Z,57.38
2022-10-11T03:55:37.890Z,54.67
2022-10-11T03:56:37.859Z,58.34
2022-10-11T03:57:37.851Z,57.32
2022-10-11T03:58:37.839Z,59.39
2022-10-11T03:59:37.831Z,63.71
2022-10-11T04:00:37.843Z,59.89
2022-10-11T04:01:37.930Z,60.51
2022-10-11T04:02:39.342Z,59.22
2022-10-11T04:03:37.789Z,59.47
2022-10-11T04:04:37.784Z,56.00
2022-10-11T04:05:37.776Z,65.20
2022-10-11T04:06:37.778Z,58.28
2022-10-11T04:07:37.755Z,58.66
2022-10-11T04:08:37.762Z,64.76
2022-10-11T04:09:37.754Z,59.56
2022-10-11T04:10:37.719Z,57.12
2022-10-11T04:11:37.763Z,59.96
2022-10-11T04:12:37.746Z,58.85
2022-10-11T04:13:37.709Z,56.58
2022-10-11T04:14:37.687Z,56.89
2022-10-11T04:15:37.693Z,58.74
2022-10-11T04:16:37.667Z,58.23
2022-10-11T04:17:37.682Z,61.12
2022-10-11T04:18:37.656Z,58.84
2022-10-11T04:19:37.645Z,57.85
2022-10-11T04:20:37.658Z,59.95
2022-10-11T04:21:37.619Z,66.69
2022-10-11T04:22:37.611Z,59.84
2022-10-11T04:23:37.615Z,58.57
2022-10-11T04:24:37.613Z,59.93
2022-10-11T04:25:37.635Z,60.18
2022-10-11T04:26:37.575Z,61.06
2022-10-11T04:27:37.559Z,60.30
2022-10-11T04:28:37.574Z,61.06
2022-10-11T04:29:37.544Z,60.99
2022-10-11T04:30:37.550Z,61.18
2022-10-11T04:31:37.518Z,60.33
2022-10-11T04:32:37.515Z,60.24
2022-10-11T04:33:37.530Z,60.69
2022-10-11T04:34:37.490Z,61.96
2022-10-11T04:35:37.485Z,61.86
2022-10-11T04:36:37.496Z,61.51
2022-10-11T04:37:37.494Z,61.00
2022-10-11T04:38:37.462Z,61.66
2022-10-11T04:39:37.441Z,64.09
2022-10-11T04:40:37.425Z,59.94
2022-10-11T04:41:37.428Z,60.99
2022-10-11T04:42:37.462Z,60.70
2022-10-11T04:43:37.431Z,58.35
2022-10-11T04:44:37.426Z,60.76
2022-10-11T04:45:37.394Z,60.13
2022-10-11T04:46:37.375Z,61.12
2022-10-11T04:47:37.374Z,63.90
2022-10-11T04:48:37.350Z,61.21
2022-10-11T04:49:37.366Z,61.37
2022-10-11T04:50:37.336Z,64.27
2022-10-11T04:51:37.321Z,64.37
2022-10-11T04:52:37.334Z,60.31
2022-10-11T04:53:37.313Z,61.36
2022-10-11T04:54:37.295Z,61.18
2022-10-11T04:55:37.297Z,61.07
2022-10-11T04:56:37.287Z,60.90
2022-10-11T04:57:37.287Z,61.15
2022-10-11T04:58:37.256Z,66.46
2022-10-11T04:59:37.262Z,61.76
2022-10-11T05:00:37.235Z,65.57
2022-10-11T05:01:37.268Z,60.56
2022-10-11T05:02:38.219Z,59.90
2022-10-11T05:03:37.216Z,65.47
2022-10-11T05:04:37.217Z,61.32
2022-10-11T05:05:37.187Z,60.08
2022-10-11T05:06:37.185Z,60.40
2022-10-11T05:07:37.183Z,60.34
2022-10-11T05:08:37.174Z,60.77
2022-10-11T05:09:37.183Z,60.87
2022-10-11T05:10:37.138Z,61.25
2022-10-11T05:11:37.134Z,60.59
2022-10-11T05:12:37.140Z,60.28
2022-10-11T05:13:37.134Z,60.87
2022-10-11T05:14:37.108Z,61.96
2022-10-11T05:15:37.103Z,62.71
2022-10-11T05:16:37.228Z,61.38
2022-10-11T05:17:37.100Z,62.20
2022-10-11T05:18:37.069Z,60.93
2022-10-11T05:19:37.059Z,61.60
2022-10-11T05:20:37.039Z,63.11
2022-10-11T05:21:37.041Z,62.28
2022-10-11T05:22:37.053Z,60.78
2022-10-11T05:23:37.025Z,60.61
2022-10-11T05:24:37.028Z,62.56
2022-10-11T05:25:37.020Z,61.24
2022-10-11T05:26:37.014Z,61.69
2022-10-11T05:27:36.993Z,62.66
2022-10-11T05:28:37.063Z,61.73
2022-10-11T05:29:36.964Z,61.39
2022-10-11T05:30:36.974Z,62.89
2022-10-11T05:31:36.942Z,63.08
2022-10-11T05:32:36.932Z,60.98
2022-10-11T05:33:36.927Z,62.10
2022-10-11T05:34:36.915Z,61.37
2022-10-11T05:35:36.918Z,62.03
2022-10-11T05:36:36.904Z,67.21
2022-10-11T05:37:36.878Z,60.83
2022-10-11T05:38:36.880Z,60.56
2022-10-11T05:39:36.879Z,64.09
2022-10-11T05:40:36.842Z,63.08
2022-10-11T05:41:36.830Z,65.23
2022-10-11T05:42:36.843Z,60.49
2022-10-11T05:43:36.819Z,61.59
2022-10-11T05:44:36.835Z,61.32
2022-10-11T05:45:36.819Z,60.93
2022-10-11T05:46:36.785Z,61.63
2022-10-11T05:47:37.784Z,67.52
2022-10-11T05:48:36.782Z,61.42
2022-10-11T05:49:36.773Z,61.22
2022-10-11T05:50:36.774Z,60.73
2022-10-11T05:51:36.739Z,61.10
2022-10-11T05:52:36.751Z,61.23
2022-10-11T05:53:36.765Z,60.96
2022-10-11T05:54:36.776Z,62.33
2022-10-11T05:55:36.714Z,67.47
2022-10-11T05:56:36.696Z,61.77
2022-10-11T05:57:36.682Z,62.06
2022-10-11T05:58:36.684Z,62.85
2022-10-11T05:59:36.683Z,63.56
2022-10-11T06:00:36.661Z,60.28
2022-10-11T06:01:36.683Z,61.86
2022-10-11T06:02:36.652Z,61.21
2022-10-11T06:03:36.625Z,61.05
2022-10-11T06:04:36.620Z,61.02
2022-10-11T06:05:36.613Z,60.33
2022-10-11T06:06:36.602Z,59.91
2022-10-11T06:07:36.608Z,58.79
2022-10-11T06:08:36.716Z,60.41
2022-10-11T06:09:36.566Z,66.49
2022-10-11T06:10:36.565Z,60.94
2022-10-11T06:11:36.557Z,60.99
2022-10-11T06:12:36.547Z,59.94
2022-10-11T06:13:36.553Z,60.77
2022-10-11T06:14:36.562Z,60.71
2022-10-11T06:15:36.532Z,60.21
2022-10-11T06:16:36.502Z,63.90
2022-10-11T06:17:36.501Z,58.46
2022-10-11T06:18:36.491Z,59.06
2022-10-11T06:19:36.495Z,59.39
2022-10-11T06:20:36.485Z,58.92
2022-10-11T06:21:36.459Z,59.56
2022-10-11T06:22:36.455Z,60.43
2022-10-11T06:23:36.436Z,62.23
2022-10-11T06:24:36.438Z,64.52
2022-10-11T06:25:36.453Z,60.76
2022-10-11T06:26:36.425Z,65.68
2022-10-11T06:27:36.394Z,59.74
2022-10-11T06:28:36.450Z,59.81
2022-10-11T06:29:36.389Z,64.38
2022-10-11T06:30:36.372Z,60.79
2022-10-11T06:31:36.376Z,65.61
2022-10-11T06:32:36.363Z,57.74
2022-10-11T06:33:36.336Z,59.26
2022-10-11T06:34:36.320Z,61.13
2022-10-11T06:35:36.317Z,62.57
2022-10-11T06:36:36.320Z,58.21
2022-10-11T06:37:36.316Z,59.75
2022-10-11T06:38:38.807Z,60.11
2022-10-11T06:39:36.276Z,58.26
2022-10-11T06:40:36.265Z,60.76
2022-10-11T06:41:36.273Z,59.07
2022-10-11T06:42:36.245Z,60.21
2022-10-11T06:43:36.265Z,59.61
2022-10-11T06:44:36.241Z,61.42
2022-10-11T06:45:36.223Z,60.54
2022-10-11T06:46:36.222Z,61.02
2022-10-11T06:47:36.208Z,60.05
2022-10-11T06:48:36.195Z,59.21
2022-10-11T06:49:36.193Z,59.47
2022-10-11T06:50:58.686Z,62.80
2022-10-11T06:51:38.171Z,57.48
2022-10-11T06:52:36.166Z,58.98
2022-10-11T06:53:36.144Z,62.79
2022-10-11T06:54:36.131Z,58.19
2022-10-11T06:55:36.129Z,58.08
2022-10-11T06:56:36.142Z,60.15
2022-10-11T06:57:36.113Z,57.87
2022-10-11T06:58:36.092Z,57.02
2022-10-11T06:59:36.095Z,59.50
2022-10-11T07:00:36.069Z,57.13
2022-10-11T07:01:36.144Z,60.16
2022-10-11T07:02:36.051Z,57.37
2022-10-11T07:03:36.036Z,57.76
2022-10-11T07:04:36.031Z,58.76
2022-10-11T07:05:36.017Z,58.42
2022-10-11T07:06:36.009Z,59.15
2022-10-11T07:07:36.004Z,57.57
2022-10-11T07:08:36.015Z,59.02
2022-10-11T07:09:35.999Z,59.19
2022-10-11T07:10:35.997Z,58.53
2022-10-11T07:11:35.983Z,57.53
2022-10-11T07:12:35.952Z,59.34
2022-10-11T07:13:36.082Z,58.58
2022-10-11T07:14:35.989Z,58.27
2022-10-11T07:15:35.941Z,57.45
2022-10-11T07:16:35.916Z,56.88
2022-10-11T07:17:35.906Z,59.52
2022-10-11T07:18:35.918Z,57.65
2022-10-11T07:19:35.993Z,56.78
2022-10-11T07:20:35.883Z,57.51
2022-10-11T07:21:35.883Z,57.21
2022-10-11T07:22:35.857Z,57.15
2022-10-11T07:23:35.850Z,57.87
2022-10-11T07:24:35.827Z,56.69
2022-10-11T07:25:35.846Z,58.24
2022-10-11T07:26:38.764Z,59.77
2022-10-11T07:27:36.816Z,61.83
2022-10-11T07:28:35.855Z,55.24
2022-10-11T07:29:35.785Z,59.24
2022-10-11T07:30:35.805Z,59.22
2022-10-11T07:31:35.765Z,65.24
2022-10-11T07:32:35.757Z,56.53
2022-10-11T07:33:35.752Z,56.65
2022-10-11T07:34:35.733Z,57.70
2022-10-11T07:35:35.731Z,60.07
2022-10-11T07:36:35.748Z,59.19
2022-10-11T07:37:35.718Z,55.50
2022-10-11T07:38:35.708Z,56.37
2022-10-11T07:39:35.697Z,59.90
2022-10-11T07:40:35.691Z,58.41
2022-10-11T07:41:35.701Z,56.54
2022-10-11T07:42:35.670Z,57.54
2022-10-11T07:43:35.659Z,57.86
2022-10-11T07:44:35.649Z,56.11
2022-10-11T07:45:35.628Z,57.43
2022-10-11T07:46:35.651Z,57.26
2022-10-11T07:47:35.617Z,57.23
2022-10-11T07:48:35.604Z,56.85
2022-10-11T07:49:35.603Z,58.00
2022-10-11T07:50:35.599Z,55.90
2022-10-11T07:51:35.581Z,58.59
2022-10-11T07:52:35.584Z,61.75
2022-10-11T07:53:35.561Z,63.07
2022-10-11T07:54:35.553Z,58.14
2022-10-11T07:55:35.532Z,57.86
2022-10-11T07:56:35.563Z,57.43
2022-10-11T07:57:35.528Z,65.67
2022-10-11T07:58:35.510Z,57.60
2022-10-11T07:59:35.505Z,59.08
2022-10-11T08:00:35.502Z,57.81
2022-10-11T08:01:35.585Z,55.01
2022-10-11T08:02:35.474Z,55.70
2022-10-11T08:03:35.489Z,54.05
2022-10-11T08:04:35.482Z,56.88
2022-10-11T08:05:35.441Z,54.58
2022-10-11T08:06:35.439Z,57.20
2022-10-11T08:07:35.445Z,54.76
2022-10-11T08:08:35.419Z,54.66
2022-10-11T08:09:35.422Z,58.32
2022-10-11T08:10:35.421Z,57.98
2022-10-11T08:11:35.392Z,57.29
2022-10-11T08:12:35.396Z,57.16
2022-10-11T08:13:35.377Z,55.96
2022-10-11T08:14:35.381Z,57.38
2022-10-11T08:15:35.347Z,57.48
2022-10-11T08:16:35.329Z,56.87
2022-10-11T08:17:35.325Z,55.55
2022-10-11T08:18:35.335Z,57.44
2022-10-11T08:19:35.310Z,57.07
2022-10-11T08:20:35.310Z,55.63
2022-10-11T08:21:35.308Z,54.97
2022-10-11T08:22:35.283Z,57.17
2022-10-11T08:23:35.272Z,56.63
2022-10-11T08:24:38.297Z,58.56
2022-10-11T08:25:38.781Z,56.01
2022-10-11T08:26:35.262Z,57.89
2022-10-11T08:27:35.241Z,56.66
2022-10-11T08:28:35.312Z,61.01
2022-10-11T08:29:35.219Z,57.28
2022-10-11T08:30:35.204Z,57.68
2022-10-11T08:31:35.195Z,58.30
2022-10-11T08:32:35.205Z,56.46
2022-10-11T08:33:40.649Z,58.01
2022-10-11T08:35:07.061Z,57.31
2022-10-11T08:35:35.151Z,56.80
2022-10-11T08:36:35.165Z,59.48
2022-10-11T08:37:35.131Z,60.33
2022-10-11T08:38:35.117Z,58.16
2022-10-11T08:39:35.115Z,58.13
2022-10-11T08:40:35.479Z,61.83
2022-10-11T08:41:35.140Z,59.59
2022-10-11T08:42:35.088Z,58.75
2022-10-11T08:43:35.079Z,59.62
2022-10-11T08:44:58.184Z,61.75
2022-10-11T08:45:37.061Z,58.77
2022-10-11T08:46:35.092Z,62.57
2022-10-11T08:47:35.092Z,59.18
2022-10-11T08:48:35.043Z,56.40
2022-10-11T08:49:35.055Z,57.05
2022-10-11T08:50:35.022Z,56.27
2022-10-11T08:51:34.999Z,56.76
2022-10-11T08:52:35.002Z,58.95
2022-10-11T08:53:34.982Z,57.69
2022-10-11T08:54:34.985Z,57.58
2022-10-11T08:55:34.965Z,58.39
2022-10-11T08:56:34.958Z,56.88
2022-10-11T08:57:34.943Z,57.10
2022-10-11T08:58:34.937Z,57.65
2022-10-11T08:59:34.939Z,62.04
2022-10-11T09:00:34.919Z,58.52
2022-10-11T09:01:34.997Z,57.43
2022-10-11T09:02:55.795Z,57.37
2022-10-11T09:03:36.894Z,59.04
2022-10-11T09:04:34.893Z,62.57
2022-10-11T09:05:34.857Z,56.89
2022-10-11T09:06:34.883Z,57.94
2022-10-11T09:07:34.839Z,57.21
2022-10-11T09:08:34.845Z,57.69
2022-10-11T09:09:34.832Z,58.07
2022-10-11T09:10:34.812Z,55.66
2022-10-11T09:11:34.827Z,56.47
2022-10-11T09:12:39.794Z,56.53
2022-10-11T09:13:35.795Z,57.21
2022-10-11T09:14:34.785Z,57.70
2022-10-11T09:15:34.789Z,59.29
2022-10-11T09:16:34.770Z,57.91
2022-10-11T09:17:34.746Z,56.85
2022-10-11T09:18:34.736Z,55.88
2022-10-11T09:19:34.729Z,56.66
2022-10-11T09:20:35.735Z,55.67
2022-10-11T09:21:34.748Z,58.18
2022-10-11T09:22:34.737Z,57.77
2022-10-11T09:23:34.681Z,58.22
2022-10-11T09:24:34.680Z,57.29
2022-10-11T09:25:34.662Z,56.13
2022-10-11T09:26:34.663Z,58.25
2022-10-11T09:27:57.848Z,57.11
2022-10-11T09:28:35.712Z,58.72
2022-10-11T09:29:34.625Z,57.08
2022-10-11T09:30:34.615Z,62.44
2022-10-11T09:31:34.629Z,57.28
2022-10-11T09:32:34.601Z,57.61
2022-10-11T09:33:34.583Z,59.92
2022-10-11T09:34:34.586Z,59.10
2022-10-11T09:35:34.585Z,58.09
2022-10-11T09:36:34.556Z,58.60
2022-10-11T09:37:34.550Z,56.80
2022-10-11T09:38:34.535Z,55.84
2022-10-11T09:39:34.539Z,62.08
2022-10-11T09:40:34.524Z,57.11
2022-10-11T09:41:34.512Z,59.38
2022-10-11T09:42:34.513Z,69.10
2022-10-11T09:43:34.486Z,59.40
2022-10-11T09:44:34.507Z,57.67
2022-10-11T09:45:34.485Z,68.61
2022-10-11T09:46:34.458Z,60.37
2022-10-11T09:47:34.458Z,57.82
2022-10-11T09:48:34.467Z,58.25
2022-10-11T09:49:34.432Z,66.56
2022-10-11T09:50:34.435Z,60.46
2022-10-11T09:51:34.419Z,59.33
2022-10-11T09:52:34.415Z,59.33
2022-10-11T09:53:34.401Z,66.45
2022-10-11T09:54:34.376Z,59.20
2022-10-11T09:55:34.379Z,61.88
2022-10-11T09:56:34.355Z,59.07
2022-10-11T09:57:34.360Z,58.77
2022-10-11T09:58:34.372Z,57.65
2022-10-11T09:59:34.343Z,57.85
2022-10-11T10:00:34.323Z,60.86
2022-10-11T10:01:34.357Z,64.26
2022-10-11T10:02:34.307Z,58.85
2022-10-11T10:03:34.305Z,61.23
2022-10-11T10:04:34.310Z,60.90
2022-10-11T10:05:34.304Z,59.56
2022-10-11T10:06:34.268Z,58.47
2022-10-11T10:07:34.270Z,62.68
2022-10-11T10:08:34.246Z,60.01
2022-10-11T10:09:34.271Z,58.40
2022-10-11T10:10:34.243Z,58.47
2022-10-11T10:11:34.217Z,59.34
2022-10-11T10:12:35.225Z,58.82
2022-10-11T10:13:34.208Z,58.10
2022-10-11T10:14:34.178Z,59.51
2022-10-11T10:15:35.190Z,59.37
2022-10-11T10:16:34.184Z,58.63
2022-10-11T10:17:34.158Z,65.55
2022-10-11T10:18:34.150Z,60.15
2022-10-11T10:19:34.170Z,61.29
2022-10-11T10:20:34.126Z,61.03
2022-10-11T10:21:35.146Z,61.88
2022-10-11T10:22:34.130Z,60.28
2022-10-11T10:23:34.115Z,59.36
2022-10-11T10:24:34.095Z,57.09
2022-10-11T10:25:34.148Z,56.74
2022-10-11T10:26:34.068Z,56.25
2022-10-11T10:27:35.053Z,58.84
2022-10-11T10:28:34.180Z,59.75
2022-10-11T10:29:34.047Z,60.71
2022-10-11T10:30:35.695Z,57.97
2022-10-11T10:31:44.422Z,57.98
2022-10-11T10:32:36.002Z,59.11
2022-10-11T10:33:34.004Z,57.76
2022-10-11T10:34:33.976Z,58.75
2022-10-11T10:35:33.996Z,59.93
2022-10-11T10:36:33.968Z,56.69
2022-10-11T10:37:33.963Z,56.26
2022-10-11T10:38:33.961Z,56.97
2022-10-11T10:39:33.927Z,66.14
2022-10-11T10:40:33.930Z,61.20
2022-10-11T10:41:33.911Z,61.84
2022-10-11T10:42:33.901Z,59.31
2022-10-11T10:43:33.908Z,60.40
2022-10-11T10:44:33.909Z,61.02
2022-10-11T10:45:33.917Z,60.08
2022-10-11T10:46:33.858Z,58.91
2022-10-11T10:47:33.869Z,58.05
2022-10-11T10:49:01.767Z,58.23
2022-10-11T10:49:53.072Z,64.29
2022-10-11T10:50:35.863Z,59.64
2022-10-11T10:51:33.815Z,60.59
2022-10-11T10:52:33.821Z,60.71
2022-10-11T10:53:33.797Z,60.61
2022-10-11T10:54:33.798Z,60.68
2022-10-11T10:55:33.804Z,57.10
2022-10-11T10:56:33.776Z,59.85
2022-10-11T10:57:33.755Z,58.42
2022-10-11T10:58:33.761Z,58.85
2022-10-11T10:59:33.747Z,58.90
2022-10-11T11:00:33.729Z,58.15
2022-10-11T11:01:33.795Z,59.00
2022-10-11T11:02:40.860Z,58.05
2022-10-11T11:03:35.723Z,58.72
2022-10-11T11:04:33.688Z,58.04
2022-10-11T11:05:33.679Z,56.90
2022-10-11T11:06:36.447Z,59.85
2022-10-11T11:07:33.667Z,58.02
2022-10-11T11:08:33.660Z,59.41
2022-10-11T11:09:33.643Z,60.03
2022-10-11T11:10:33.633Z,61.17
2022-10-11T11:11:33.643Z,58.62
2022-10-11T11:12:33.626Z,58.71
2022-10-11T11:13:33.603Z,58.48
2022-10-11T11:14:33.624Z,58.24
2022-10-11T11:15:37.762Z,59.47
2022-10-11T11:16:34.600Z,57.81
2022-10-11T11:17:33.578Z,59.27
2022-10-11T11:18:33.566Z,58.84
2022-10-11T11:19:33.567Z,58.90
2022-10-11T11:20:33.549Z,58.78
2022-10-11T11:21:34.986Z,59.14
2022-10-11T11:22:33.511Z,58.38
2022-10-11T11:23:33.501Z,58.33
2022-10-11T11:24:33.517Z,57.64
2022-10-11T11:25:33.481Z,58.09
2022-10-11T11:26:33.473Z,58.07
2022-10-11T11:27:33.465Z,56.10
2022-10-11T11:28:33.519Z,58.29
2022-10-11T11:29:33.444Z,58.54
2022-10-11T11:30:33.456Z,59.49
2022-10-11T11:31:33.421Z,58.38
2022-10-11T11:32:33.442Z,63.38
2022-10-11T11:33:33.412Z,63.20
2022-10-11T11:34:33.401Z,57.31
2022-10-11T11:35:33.403Z,59.39
2022-10-11T11:36:33.379Z,58.87
2022-10-11T11:37:33.398Z,57.13
2022-10-11T11:38:33.364Z,62.47
2022-10-11T11:39:33.345Z,58.24
2022-10-11T11:40:33.338Z,58.17
2022-10-11T11:41:33.327Z,63.15
2022-10-11T11:42:33.313Z,58.91
2022-10-11T11:43:33.345Z,57.95
2022-10-11T11:44:33.299Z,61.61
2022-10-11T11:45:33.290Z,58.34
2022-10-11T11:46:33.284Z,59.02
2022-10-11T11:47:33.262Z,58.57
2022-10-11T11:48:33.281Z,56.76
2022-10-11T11:49:33.306Z,57.83
2022-10-11T11:50:34.387Z,58.70
2022-10-11T11:51:33.224Z,60.15
2022-10-11T11:52:33.226Z,61.84
2022-10-11T11:53:34.226Z,61.59
2022-10-11T11:54:33.204Z,60.56
2022-10-11T11:55:33.193Z,57.74
2022-10-11T11:56:33.165Z,59.53
2022-10-11T11:57:33.177Z,58.63
2022-10-11T11:58:33.163Z,60.32
2022-10-11T11:59:33.176Z,60.03
2022-10-11T12:00:33.142Z,58.58
2022-10-11T12:01:33.123Z,57.95
2022-10-11T12:02:33.108Z,60.20
2022-10-11T12:03:33.852Z,59.63
2022-10-11T12:04:33.126Z,59.23
2022-10-11T12:05:33.086Z,58.46
2022-10-11T12:06:33.077Z,58.09
2022-10-11T12:07:33.095Z,57.82
2022-10-11T12:08:33.061Z,63.87
2022-10-11T12:09:33.047Z,62.77
2022-10-11T12:10:33.058Z,61.24
2022-10-11T12:11:35.476Z,59.78
2022-10-11T12:12:33.039Z,57.94
2022-10-11T12:13:33.010Z,57.37
2022-10-11T12:14:33.062Z,58.64
2022-10-11T12:15:33.017Z,61.65
2022-10-11T12:16:33.070Z,60.85
2022-10-11T12:17:32.976Z,60.02
2022-10-11T12:18:32.964Z,58.05
2022-10-11T12:19:32.957Z,57.55
2022-10-11T12:20:32.980Z,59.91
2022-10-11T12:21:32.932Z,59.59
2022-10-11T12:22:33.920Z,60.19
2022-10-11T12:23:32.926Z,59.70
2022-10-11T12:24:32.915Z,61.84
2022-10-11T12:25:32.919Z,60.02
2022-10-11T12:26:32.903Z,60.36
2022-10-11T12:27:32.878Z,64.77
2022-10-11T12:28:32.924Z,60.87
2022-10-11T12:29:32.878Z,65.32
2022-10-11T12:30:32.861Z,59.42
2022-10-11T12:31:32.850Z,59.41
2022-10-11T12:32:32.817Z,59.97
2022-10-11T12:33:32.813Z,58.00
2022-10-11T12:34:32.959Z,59.85
2022-10-11T12:35:32.797Z,59.60
2022-10-11T12:36:32.789Z,64.07
2022-10-11T12:37:32.777Z,59.39
2022-10-11T12:38:32.790Z,59.25
2022-10-11T12:39:32.767Z,59.35
2022-10-11T12:40:32.762Z,60.63
2022-10-11T12:41:32.759Z,60.76
2022-10-11T12:42:32.721Z,60.77
2022-10-11T12:43:32.713Z,60.29
2022-10-11T12:44:32.733Z,59.80
2022-10-11T12:45:32.708Z,58.19
2022-10-11T12:46:32.698Z,59.96
2022-10-11T12:47:32.698Z,61.40
2022-10-11T12:48:37.130Z,59.49
2022-10-11T12:49:34.682Z,59.58
2022-10-11T12:50:32.673Z,58.04
2022-10-11T12:51:32.639Z,60.27
2022-10-11T12:52:32.644Z,65.50
2022-10-11T12:53:32.617Z,58.99
2022-10-11T12:54:36.928Z,59.25